Hlavní strana
METAR-TAF:

METAR-TAF

Letiště :

Uljanovsk, Rusko

zeměpisná šířka: 54-21N, zeměpisná délka: 048-23E, výška: 77 m

Aktuální stav počasí

Zpráva byla vytvořena před 1 hodinou a 3 minutami, v 19:00 UTC
Východoseverovýchodní vítr 12 kt
Teplota -10°C
Vlhkost vzduchu 67%
Tlak 1039 hPa
Viditelnost: 8000 m

METAR: UWLW 191900Z 06006MPS 8000 NSC M10/M15 Q1039 R20/300148 NOSIG RMK QFE774

Čas: 23:03 (20:03 UTC)

Předpověď počasí

Zpráva byla vytvořena před 3 hodinami a 18 minutami, v 16:45 UTC
Předpověď platná od 19 v 18 UTC do 20 v 18 UTC
Severovýchodní vítr 10 kt s nárazy do 19 kt
Viditelnost: 8000 m
Polojasno ve výšce 2000 ft
Dočasný
od 19 v 18 UTC do 20 v 12 UTC
Východoseverovýchodní vítr 12 kt s nárazy do 25 kt

TAF: UWLW 191645Z 1918/2018 04005G10MPS 8000 SCT020 TEMPO 1918/2012 07006G13MPS

Stav a předpovědi počasí z více než 4 000 letišť (zprávy METAR a TAF).

Červené a žluté tečky na mapě představují dostupné meteorologické stanice.

Když kurzor umístíte na tečku, zobrazí se název stanice.

Pak kliknutím zobrazíte stav a předpověď počasí.

Chcete-li změnit mapu, kliknutím na zelené tlačítko se znaménkem +mapu přiblížíte, kliknutím na zelené tlačítko se znaménkem – mapu oddálíte a kliknutím na zelené šipky přejdete na sousední mapy.


METAR-TAF: